• Join FlightAware (Why Join?)
  • Login
  • US Flag 
02:28PM EDT


 

Airport Tracker/Info


-or-


 

Live Flight TrackerFlight Track Log ✈ SWA1114 ✈ 25-May-2013 ✈ KPHX - KBWI

Flight Track Log - Related Links

Times and Time Zones

All times are in EDT time to prevent confusion due to time zone crossing. See the SWA1114 flight status page for this flight to view local times or setup timezone preferences in your user account.

Time Position Orientation Groundspeed Altitude Reporting Facility
EDT Latitude Longitude Course Direction KTS MPH feet Rate Location/Type
05:21PM 33.4333 -112.1000 270° West 210 242 3,800  Level Phoenix TRACON
05:22PM 33.4347 -112.1289 273° West 210 242 5,100 2,760 Climbing Albuquerque Center
05:23PM 33.4639 -112.1939 298° West 255 293 8,000 2,340 Climbing Albuquerque Center
05:24PM 33.5056 -112.1278 53° Northeast 279 321 9,900 1,740 Climbing Albuquerque Center
05:24PM 33.5167 -112.0667 78° East 334 384 10,800 2,340 Climbing Phoenix TRACON
05:25PM 33.5500 -111.9500 71° East 362 417 13,400 2,640 Climbing Phoenix TRACON
05:26PM 33.5667 -111.8333 80° East 380 437 15,900 2,100 Climbing Phoenix TRACON
05:27PM 33.5797 -111.7814 73° East 380 437 16,800 2,040 Climbing Albuquerque Center
05:28PM 33.6078 -111.6511 75° East 405 466 19,200 2,520 Climbing Albuquerque Center
05:29PM 33.6414 -111.4922 76° East 415 478 22,000 2,400 Climbing Albuquerque Center
05:30PM 33.6700 -111.3531 76° East 430 495 24,200 1,800 Climbing Albuquerque Center
05:31PM 33.7078 -111.2139 72° East 443 510 25,800 1,440 Climbing Albuquerque Center
05:32PM 33.7586 -111.0719 67° East 465 535 27,200 1,500 Climbing Albuquerque Center
05:33PM 33.8094 -110.9244 67° East 477 549 28,900 1,560 Climbing Albuquerque Center
05:34PM 33.8622 -110.7775 67° East 481 554 30,400 1,560 Climbing Albuquerque Center
05:35PM 33.9150 -110.6275 67° East 485 558 32,100 1,260 Climbing Albuquerque Center
05:36PM 33.9789 -110.4475 67° East 488 562 33,000 420 Climbing Albuquerque Center
05:37PM 34.0319 -110.2947 67° East 491 565 33,000  Level Albuquerque Center
05:38PM 34.0836 -110.1436 68° East 491 565 33,000  Level Albuquerque Center
05:39PM 34.1342 -109.9978 67° East 489 563 33,000 600 Level Albuquerque Center
05:40PM 34.1892 -109.8289 68° East 485 558 34,300 1,260 Climbing Albuquerque Center
05:41PM 34.2300 -109.6836 71° East 481 554 35,700 1,080 Climbing Albuquerque Center
05:42PM 34.2839 -109.5181 68° East 476 548 36,600 600 Climbing Albuquerque Center
05:43PM 34.3333 -109.3764 67° East 477 549 37,000 180 Climbing Albuquerque Center
05:44PM 34.3819 -109.2339 68° East 479 551 37,000  Level Albuquerque Center
05:45PM 34.4381 -109.0694 67° East 476 548 37,000  Level Albuquerque Center
05:46PM 34.4858 -108.9283 68° East 474 545 37,000  Level Albuquerque Center
05:47PM 34.5408 -108.7639 68° East 473 544 37,000  Level Albuquerque Center
05:48PM 34.5883 -108.6214 68° East 474 545 37,000  Level Albuquerque Center
05:49PM 34.6400 -108.4650 68° East 472 543 37,000  Level Albuquerque Center
05:50PM 34.6897 -108.3178 68° East 471 542 37,000  Level Albuquerque Center
05:51PM 34.7372 -108.1700 69° East 472 543 37,000  Level Albuquerque Center
05:52PM 34.7861 -108.0225 68° East 471 542 37,000  Level Albuquerque Center
05:53PM 34.8364 -107.8711 68° East 468 539 37,000  Level Albuquerque Center
05:54PM 34.8831 -107.7278 68° East 470 541 37,000  Level Albuquerque Center
05:55PM 34.9300 -107.5792 69° East 470 541 37,000  Level Albuquerque Center
05:56PM 34.9789 -107.4294 68° East 473 544 37,000  Level Albuquerque Center
05:57PM 35.0256 -107.2794 69° East 473 544 37,000  Level Albuquerque Center
05:58PM 35.0797 -107.1111 68° East 475 547 37,000  Level Albuquerque Center
05:59PM 35.1328 -106.9442 69° East 473 544 37,000  Level Albuquerque Center
06:00PM 35.1786 -106.8011 69° East 473 544 37,000  Level Albuquerque Center
06:01PM 35.2236 -106.6581 69° East 473 544 37,000  Level Albuquerque Center
06:02PM 35.2769 -106.4850 69° East 480 552 37,000  Level Albuquerque Center
06:03PM 35.3228 -106.3350 69° East 474 545 37,000  Level Albuquerque Center
06:05PM 35.3650 -106.1964 69° East 466 536 37,000  Level Albuquerque Center
06:06PM 35.4161 -106.0361 69° East 473 544 37,000  Level Albuquerque Center
06:07PM 35.4625 -105.8861 69° East 472 543 37,000  Level Albuquerque Center
06:08PM 35.5031 -105.7419 71° East 468 539 37,000  Level Albuquerque Center
06:09PM 35.5572 -105.5661 69° East 466 536 37,000  Level Albuquerque Center
06:10PM 35.6014 -105.4178 70° East 459 528 37,000  Level Albuquerque Center
06:11PM 35.6450 -105.2678 70° East 460 529 37,000  Level Albuquerque Center
06:12PM 35.6911 -105.1150 70° East 463 533 37,000  Level Albuquerque Center
06:13PM 35.7350 -104.9644 70° East 462 532 37,000  Level Albuquerque Center
06:14PM 35.7808 -104.8119 70° East 466 536 37,000  Level Albuquerque Center
06:15PM 35.8261 -104.6572 70° East 472 543 37,000  Level Albuquerque Center
06:16PM 35.8703 -104.5042 70° East 471 542 37,000  Level Albuquerque Center
06:17PM 35.9236 -104.3533 66° East 474 545 37,000  Level Albuquerque Center
06:18PM 35.9911 -104.2097 60° Northeast 476 548 37,000  Level Albuquerque Center
06:19PM 36.0567 -104.0608 61° Northeast 483 556 37,000  Level Albuquerque Center
06:20PM 36.1072 -103.9067 68° East 480 552 37,000  Level Albuquerque Center
06:21PM 36.1508 -103.7486 71° East 479 551 37,000  Level Albuquerque Center
06:22PM 36.1939 -103.5922 71° East 476 548 37,000  Level Albuquerque Center
06:23PM 36.2378 -103.4344 71° East 479 551 37,000  Level Albuquerque Center
06:24PM 36.2808 -103.2747 71° East 483 556 37,000  Level Albuquerque Center
06:25PM 36.3228 -103.1147 72° East 483 556 37,000  Level Albuquerque Center
06:26PM 36.3658 -102.9558 71° East 482 555 37,000  Level Albuquerque Center
06:27PM 36.4072 -102.8033 71° East 481 554 37,000  Level Albuquerque Center
06:28PM 36.4497 -102.6467 71° East 480 552 37,000  Level Albuquerque Center
06:29PM 36.4922 -102.4892 71° East 480 552 37,000  Level Albuquerque Center
06:30PM 36.5419 -102.3017 72° East 478 550 37,000  Level Albuquerque Center
06:31PM 36.5819 -102.1467 72° East 473 544 37,000  Level Albuquerque Center
06:32PM 36.6225 -101.9922 72° East 473 544 37,000  Level Albuquerque Center
06:33PM 36.6614 -101.8414 72° East 478 550 37,000 240 Level Albuquerque Center
06:34PM 36.7072 -101.6658 72° East 478 550 37,600 660 Climbing Albuquerque Center
06:35PM 36.7322 -101.5636 73° East 480 552 38,200 780 Climbing Kansas City Center
06:36PM 36.7714 -101.4153 72° East 477 549 39,000 360 Climbing Kansas City Center
06:37PM 36.8164 -101.2386 72° East 478 550 39,000  Level Kansas City Center
06:38PM 36.8544 -101.0867 73° East 480 552 39,000  Level Kansas City Center
06:39PM 36.8997 -100.9117 72° East 478 550 39,000  Level Kansas City Center
06:40PM 36.9369 -100.7597 73° East 480 552 39,000  Level Kansas City Center
06:41PM 36.9747 -100.6075 73° East 481 554 39,000  Level Kansas City Center
06:42PM 37.0189 -100.4303 73° East 481 554 39,000  Level Kansas City Center
06:43PM 37.0561 -100.2781 73° East 480 552 39,000  Level Kansas City Center
06:44PM 37.0986 -100.1008 73° East 479 551 39,000  Level Kansas City Center
06:45PM 37.1353 -99.9506 73° East 476 548 39,000  Level Kansas City Center
06:46PM 37.1717 -99.7969 73° East 479 551 39,000  Level Kansas City Center
06:47PM 37.2147 -99.6189 73° East 479 551 39,000  Level Kansas City Center
06:48PM 37.2511 -99.4664 73° East 479 551 39,000  Level Kansas City Center
06:49PM 37.2903 -99.2953 74° East 482 555 39,000  Level Kansas City Center
06:50PM 37.3281 -99.1428 73° East 479 551 39,000  Level Kansas City Center
06:51PM 37.3631 -98.9814 75° East 479 551 39,000  Level Kansas City Center
06:52PM 37.4003 -98.8197 74° East 482 555 39,000  Level Kansas City Center
06:53PM 37.4367 -98.6603 74° East 478 550 39,000  Level Kansas City Center
06:54PM 37.4806 -98.4667 74° East 479 551 39,000  Level Kansas City Center
06:55PM 37.5169 -98.3061 74° East 480 552 39,000  Level Kansas City Center
06:56PM 37.5533 -98.1467 74° East 478 550 39,000  Level Kansas City Center
06:57PM 37.5886 -97.9861 74° East 479 551 39,000  Level Kansas City Center
06:58PM 37.6269 -97.8069 75° East 479 551 39,000  Level Kansas City Center
06:59PM 37.6625 -97.6428 75° East 482 555 39,000  Level Kansas City Center
07:00PM 37.6975 -97.4794 75° East 481 554 39,000  Level Kansas City Center
07:01PM 37.7369 -97.3100 74° East 482 555 39,000  Level Kansas City Center
07:02PM 37.7706 -97.1469 75° East 481 554 39,000  Level Kansas City Center
07:03PM 37.8058 -96.9856 74° East 479 551 39,000  Level Kansas City Center
07:04PM 37.8406 -96.8219 75° East 482 555 39,000  Level Kansas City Center
07:05PM 37.8742 -96.6589 75° East 481 554 39,000  Level Kansas City Center
07:06PM 37.9086 -96.4961 75° East 480 552 39,000  Level Kansas City Center
07:08PM 37.9428 -96.3319 75° East 484 557 39,000  Level Kansas City Center
07:09PM 37.9822 -96.1356 76° East 481 554 39,000  Level Kansas City Center
07:10PM 38.0119 -95.9908 75° East 478 550 39,000  Level Kansas City Center
07:11PM 38.0486 -95.8069 76° East 482 555 39,000  Level Kansas City Center
07:12PM 38.0806 -95.6483 76° East 485 558 39,000  Level Kansas City Center
07:13PM 38.1175 -95.4617 76° East 488 562 39,000  Level Kansas City Center
07:14PM 38.1478 -95.3019 76° East 489 563 39,000  Level Kansas City Center
07:15PM 38.1847 -95.1169 76° East 486 559 39,000  Level Kansas City Center
07:16PM 38.2158 -94.9594 76° East 484 557 39,000  Level Kansas City Center
07:17PM 38.2458 -94.7986 77° East 485 558 39,000  Level Kansas City Center
07:18PM 38.2817 -94.6103 76° East 489 563 39,000  Level Kansas City Center
07:19PM 38.3119 -94.4511 76° East 488 562 39,000  Level Kansas City Center
07:20PM 38.3461 -94.2650 77° East 487 560 39,000  Level Kansas City Center
07:21PM 38.3753 -94.1067 77° East 485 558 39,000  Level Kansas City Center
07:22PM 38.4053 -93.9394 77° East 478 550 39,000  Level Kansas City Center
07:23PM 38.4353 -93.7739 77° East 478 550 39,000  Level Kansas City Center
07:24PM 38.4658 -93.6081 77° East 478 550 39,000  Level Kansas City Center
07:25PM 38.4964 -93.4400 77° East 481 554 39,000  Level Kansas City Center
07:26PM 38.5264 -93.2728 77° East 482 555 39,000  Level Kansas City Center
07:27PM 38.5553 -93.1061 77° East 480 552 39,000  Level Kansas City Center
07:28PM 38.5847 -92.9389 77° East 479 551 39,000  Level Kansas City Center
07:29PM 38.6131 -92.7717 78° East 479 551 39,000  Level Kansas City Center
07:30PM 38.6431 -92.6036 77° East 480 552 39,000  Level Kansas City Center
07:31PM 38.6708 -92.4353 78° East 480 552 39,000  Level Kansas City Center
07:32PM 38.7044 -92.2300 78° East 485 558 39,000  Level Kansas City Center
07:33PM 38.7333 -92.0606 78° East 485 558 39,000  Level Kansas City Center
07:34PM 38.7606 -91.8900 78° East 486 559 39,000  Level Kansas City Center
07:35PM 38.7875 -91.7200 78° East 485 558 39,000  Level Kansas City Center
07:36PM 38.8119 -91.5675 78° East 484 557 39,000  Level Kansas City Center
07:37PM 38.8400 -91.3989 78° East 485 558 39,000  Level Kansas City Center
07:38PM 38.8661 -91.2308 79° East 481 554 39,000  Level Kansas City Center
07:39PM 38.8919 -91.0622 79° East 482 555 39,000  Level Kansas City Center
07:40PM 38.9244 -90.8594 78° East 481 554 39,000  Level Kansas City Center
07:41PM 38.9514 -90.6894 78° East 483 556 39,000  Level Kansas City Center
07:42PM 38.9778 -90.5169 79° East 486 559 39,000  Level Kansas City Center
07:43PM 39.0042 -90.3450 79° East 485 558 39,000  Level Kansas City Center
07:44PM 39.0283 -90.1744 80° East 483 556 39,000  Level Kansas City Center
07:45PM 39.0539 -90.0036 79° East 483 556 39,000  Level Kansas City Center
07:46PM 39.0786 -89.8292 80° East 479 551 39,000  Level Kansas City Center
07:47PM 39.1033 -89.6586 79° East 484 557 39,000  Level Kansas City Center
07:48PM 39.1297 -89.4725 80° East 490 564 39,000  Level Kansas City Center
07:49PM 39.1525 -89.3000 80° East 489 563 39,000  Level Kansas City Center
07:50PM 39.1753 -89.1450 79° East 493 567 39,000  Level Kansas City Center
07:51PM 39.1994 -88.9700 80° East 496 571 39,000  Level Kansas City Center
07:52PM 39.2258 -88.7947 79° East 498 573 39,000  Level Kansas City Center
07:53PM 39.2544 -88.5814 80° East 503 579 39,000  Level Kansas City Center
07:54PM 39.2733 -88.4250 81° East 502 578 39,000  Level Kansas City Center
07:55PM 39.2964 -88.2464 80° East 503 579 39,000  Level Kansas City Center
07:57PM 39.3194 -88.0683 80° East 501 577 39,000  Level Kansas City Center
07:57PM 39.3314 -87.9650 81° East 499 574 39,000  Level Indianapolis Center
07:58PM 39.3544 -87.7875 80° East 501 577 39,000  Level Indianapolis Center
07:59PM 39.3761 -87.6089 81° East 500 575 39,000  Level Indianapolis Center
08:00PM 39.3994 -87.4328 80° East 499 574 39,000  Level Indianapolis Center
08:01PM 39.4203 -87.2567 81° East 499 574 39,000  Level Indianapolis Center
08:02PM 39.4408 -87.0806 81° East 499 574 39,000  Level Indianapolis Center
08:03PM 39.4614 -86.9083 81° East 491 565 39,000  Level Indianapolis Center
08:04PM 39.4819 -86.7344 81° East 491 565 39,000  Level Indianapolis Center
08:05PM 39.5017 -86.5625 81° East 489 563 39,000  Level Indianapolis Center
08:06PM 39.5211 -86.3911 82° East 488 562 39,000  Level Indianapolis Center
08:07PM 39.5397 -86.2219 82° East 487 560 39,000  Level Indianapolis Center
08:08PM 39.5594 -86.0514 81° East 487 560 39,000  Level Indianapolis Center
08:09PM 39.5822 -85.8461 82° East 487 560 39,000  Level Indianapolis Center
08:10PM 39.6006 -85.6722 82° East 489 563 39,000  Level Indianapolis Center
08:11PM 39.6183 -85.4975 82° East 491 565 39,000  Level Indianapolis Center
08:12PM 39.6375 -85.3233 82° East 490 564 39,000  Level Indianapolis Center
08:13PM 39.6558 -85.1483 82° East 491 565 39,000  Level Indianapolis Center
08:14PM 39.6739 -84.9742 82° East 490 564 39,000  Level Indianapolis Center
08:15PM 39.6894 -84.8081 83° East 488 562 39,000  Level Indianapolis Center
08:16PM 39.7100 -84.6017 83° East 490 564 39,000  Level Indianapolis Center
08:17PM 39.7275 -84.4261 83° East 487 560 39,000  Level Indianapolis Center
08:18PM 39.7439 -84.2503 83° East 487 560 39,000  Level Indianapolis Center
08:19PM 39.7603 -84.0744 83° East 487 560 39,000  Level Indianapolis Center
08:20PM 39.7764 -83.8989 83° East 486 559 39,000  Level Indianapolis Center
08:21PM 39.7917 -83.7239 83° East 485 558 39,000  Level Indianapolis Center
08:22PM 39.7961 -83.5431 88° East 489 563 39,000  Level Indianapolis Center
08:23PM 39.8056 -83.3622 86° East 499 574 39,000  Level Indianapolis Center
08:24PM 39.8092 -83.1936 88° East 497 572 39,000  Level Indianapolis Center
08:25PM 39.8150 -83.0139 88° East 495 570 39,000  Level Indianapolis Center
08:26PM 39.8194 -82.8350 88° East 493 567 39,000  Level Indianapolis Center
08:27PM 39.8244 -82.6533 88° East 499 574 39,000  Level Indianapolis Center
08:28PM 39.8292 -82.4725 88° East 498 573 39,000  Level Indianapolis Center
08:29PM 39.8325 -82.2928 89° East 495 570 39,000  Level Indianapolis Center
08:30PM 39.8361 -82.1131 88° East 493 567 39,000  Level Indianapolis Center
08:31PM 39.8403 -81.9339 88° East 492 566 39,000  Level Indianapolis Center
08:32PM 39.8442 -81.7550 88° East 491 565 39,000  Level Indianapolis Center
08:33PM 39.8467 -81.5739 89° East 495 570 39,000  Level Indianapolis Center
08:34PM 39.8489 -81.3922 89° East 486 559 39,000  Level Indianapolis Center
08:35PM 39.8517 -81.2175 89° East 481 554 39,000  Level Indianapolis Center
08:36PM 39.8533 -81.0433 89° East 481 554 39,000  Level Indianapolis Center
08:37PM 39.8558 -80.8697 89° East 478 550 39,000  Level Indianapolis Center
08:38PM 39.8564 -80.6947 90° East 481 554 39,000  Level Indianapolis Center
08:40PM 39.8578 -80.5189 89° East 484 557 39,000  Level Indianapolis Center
08:41PM 39.8594 -80.3456 89° East 480 552 39,000  Level Indianapolis Center
08:42PM 39.8594 -80.1706 90° East 483 556 39,000 -60 Level Indianapolis Center
08:43PM 39.8514 -79.9969 93° East 479 551 38,900 -1,200 Descending Indianapolis Center
08:44PM 39.8131 -79.8028 104° East 476 548 36,500 -2,580 Descending Washington Center
08:45PM 39.7775 -79.6225 104° East 497 572 33,600 -3,060 Descending Washington Center
08:46PM 39.7378 -79.4369 106° East 517 595 30,400 -3,180 Descending Washington Center
08:47PM 39.6997 -79.2594 106° East 522 601 27,400 -2,760 Descending Washington Center
08:48PM 39.6611 -79.0822 106° East 517 595 25,000 -1,200 Descending Washington Center
08:49PM 39.6186 -78.8889 106° East 507 583 25,000 -600 Level Washington Center
08:50PM 39.5814 -78.7175 106° East 501 577 23,900 -1,740 Descending Washington Center
08:51PM 39.5439 -78.5544 107° East 489 563 21,500 -2,400 Descending Washington Center
08:52PM 39.5081 -78.3944 106° East 476 548 19,100 -2,400 Descending Washington Center
08:53PM 39.4761 -78.2453 105° East 450 518 16,800 -2,040 Descending Washington Center
08:54PM 39.4522 -78.0992 102° East 431 496 15,100 -900 Descending Washington Center
08:55PM 39.4508 -77.9567 91° East 411 473 15,000  Descending Washington Center
08:56PM 39.4494 -77.8142 91° East 401 461 15,100  Climbing Washington Center
08:57PM 39.4456 -77.6744 92° East 396 456 15,100 -780 Level Washington Center
08:58PM 39.4458 -77.5344 90° East 391 450 13,600 -1,980 Descending Washington Center
08:59PM 39.4439 -77.3975 91° East 386 444 11,200 -1,980 Descending Washington Center
08:59PM 39.4500 -77.3500 81° East 371 427 11,100 -180 Descending Potomac TRACON
09:00PM 39.4500 -77.2333 90° East 359 413 11,000 -300 Descending Potomac TRACON
09:01PM 39.4500 -77.1167 90° East 352 405 10,600 -720 Descending Potomac TRACON
09:02PM 39.4333 -76.9833 99° East 317 365 9,600 -1,140 Descending Potomac TRACON
09:03PM 39.4167 -76.8833 102° East 298 343 8,300 -1,500 Descending Potomac TRACON
09:04PM 39.3833 -76.7833 113° Southeast 298 343 6,700 -1,560 Descending Potomac TRACON
09:05PM 39.3500 -76.7000 117° Southeast 303 349 5,200 -900 Descending Potomac TRACON
09:06PM 39.2833 -76.6333 142° Southeast 300 345 5,000 -780 Descending Potomac TRACON
09:07PM 39.2333 -76.5667 134° Southeast 300 345 3,800 -1,080 Descending Potomac TRACON
09:08PM 39.1667 -76.5167 150° Southeast 285 328 3,000 -720 Descending Potomac TRACON
09:09PM 39.1167 -76.5500 207° Southwest 201 231 2,400 -840 Descending Potomac TRACON
09:10PM 39.1167 -76.6000 270° West 150 173 1,400 -840 Descending Potomac TRACON
09:11PM 39.1333 -76.6333 303° West 121 139 800 -600 Descending Potomac TRACON
09:13PM 39.1667 -76.6667 270° West  Level FlightAware Approximate
09:20PM 39.1754 -76.6683 270° West  Level Estimated
09:21PM 39.1754 -76.6683 270° West  Level Estimated